createdAt,value
2022-08-30T00:01:42.440Z,98221.41
2022-08-30T00:03:46.462Z,98223.19
2022-08-30T00:05:48.040Z,98224.09
2022-08-30T00:07:49.359Z,98231.78
2022-08-30T00:09:50.756Z,98226.66
2022-08-30T00:11:52.218Z,98224.94
2022-08-30T00:13:53.565Z,98232.63
2022-08-30T00:15:54.983Z,98236.06
2022-08-30T00:17:56.325Z,98238.69
2022-08-30T00:19:57.644Z,98231.00
2022-08-30T00:21:59.047Z,98230.16
2022-08-30T00:24:00.635Z,98223.41
2022-08-30T00:26:02.623Z,98228.53
2022-08-30T00:28:04.112Z,98229.22
2022-08-30T00:30:05.427Z,98223.19
2022-08-30T00:32:06.813Z,98235.34
2022-08-30T00:34:08.147Z,98227.66
2022-08-30T00:36:09.499Z,98227.72
2022-08-30T00:38:10.829Z,98237.16
2022-08-30T00:40:12.306Z,98237.13
2022-08-30T00:42:13.668Z,98232.00
2022-08-30T00:44:15.158Z,98230.31
2022-08-30T00:46:16.755Z,98230.22
2022-08-30T00:48:18.832Z,98231.88
2022-08-30T00:50:20.187Z,98227.59
2022-08-30T00:52:21.504Z,98224.19
2022-08-30T00:54:23.563Z,98237.00
2022-08-30T00:56:27.710Z,98235.34
2022-08-30T00:58:29.068Z,98226.81
2022-08-30T01:00:30.378Z,98226.81
2022-08-30T01:02:33.445Z,98226.81
2022-08-30T01:04:34.922Z,98223.47
2022-08-30T01:06:36.327Z,98221.78
2022-08-30T01:08:38.689Z,98220.06
2022-08-30T01:10:40.029Z,98226.91
2022-08-30T01:12:41.352Z,98226.09
2022-08-30T01:14:42.664Z,98219.28
2022-08-30T01:16:44.042Z,98229.53
2022-08-30T01:18:45.376Z,98220.13
2022-08-30T01:20:47.268Z,98221.88
2022-08-30T01:22:48.616Z,98216.75
2022-08-30T01:24:49.950Z,98221.88
2022-08-30T01:26:51.271Z,98226.16
2022-08-30T01:28:52.669Z,98228.72
2022-08-30T01:30:54.157Z,98229.56
2022-08-30T01:32:55.602Z,98238.91
2022-08-30T01:34:56.927Z,98238.84
2022-08-30T01:36:58.283Z,98229.53
2022-08-30T01:38:59.640Z,98230.38
2022-08-30T01:41:01.060Z,98237.25
2022-08-30T01:43:02.409Z,98092.13
2022-08-30T01:45:04.191Z,98231.28
2022-08-30T01:47:05.505Z,98233.88
2022-08-30T01:49:06.845Z,98228.75
2022-08-30T01:51:08.164Z,98227.94
2022-08-30T01:53:09.479Z,98233.06
2022-08-30T01:55:14.864Z,98229.66
2022-08-30T01:57:16.230Z,98230.50
2022-08-30T01:59:17.903Z,98224.59
2022-08-30T02:01:19.856Z,98223.75
2022-08-30T02:03:21.335Z,98223.75
2022-08-30T02:05:23.167Z,98223.81
2022-08-30T02:07:24.523Z,98220.34
2022-08-30T02:09:25.836Z,98228.94
2022-08-30T02:11:27.197Z,98225.53
2022-08-30T02:13:28.515Z,98223.81
2022-08-30T02:15:29.855Z,98220.41
2022-08-30T02:17:34.302Z,98218.75
2022-08-30T02:19:35.623Z,98219.63
2022-08-30T02:21:36.967Z,98213.72
2022-08-30T02:23:38.355Z,98208.63
2022-08-30T02:25:40.999Z,98216.31
2022-08-30T02:27:42.363Z,98214.63
2022-08-30T02:29:44.176Z,98219.78
2022-08-30T02:31:45.526Z,98150.22
2022-08-30T02:33:46.844Z,98212.13
2022-08-30T02:35:48.199Z,98220.72
2022-08-30T02:37:49.577Z,98221.59
2022-08-30T02:39:50.922Z,98219.91
2022-08-30T02:41:52.367Z,98214.81
2022-08-30T02:43:58.519Z,98221.66
2022-08-30T02:46:01.169Z,98217.44
2022-08-30T02:48:02.551Z,98217.44
2022-08-30T02:50:03.918Z,98210.63
2022-08-30T02:52:05.307Z,98210.63
2022-08-30T02:54:06.622Z,98214.03
2022-08-30T02:56:07.971Z,98216.47
2022-08-30T02:58:10.558Z,98212.06
2022-08-30T03:00:12.598Z,98210.31
2022-08-30T03:02:13.915Z,98205.22
2022-08-30T03:04:15.233Z,98206.88
2022-08-30T03:06:16.539Z,98205.19
2022-08-30T03:08:18.003Z,98213.69
2022-08-30T03:10:19.324Z,98207.75
2022-08-30T03:12:20.663Z,98215.38
2022-08-30T03:14:22.095Z,98215.44
2022-08-30T03:16:23.569Z,98212.03
2022-08-30T03:18:25.064Z,98206.94
2022-08-30T03:20:26.407Z,98210.31
2022-08-30T03:22:27.760Z,98211.16
2022-08-30T03:24:29.095Z,98213.75
2022-08-30T03:26:31.316Z,98218.00
2022-08-30T03:28:32.635Z,98223.97
2022-08-30T03:30:34.020Z,98217.13
2022-08-30T03:32:35.345Z,98228.22
2022-08-30T03:34:36.668Z,98217.13
2022-08-30T03:36:38.317Z,98220.50
2022-08-30T03:38:39.635Z,98230.75
2022-08-30T03:40:41.071Z,98233.38
2022-08-30T03:42:43.320Z,98230.81
2022-08-30T03:44:45.311Z,98236.81
2022-08-30T03:46:46.672Z,98231.69
2022-08-30T03:48:47.999Z,98235.94
2022-08-30T03:50:49.397Z,98238.50
2022-08-30T03:52:50.731Z,98230.84
2022-08-30T03:54:52.079Z,98238.50
2022-08-30T03:56:53.398Z,98233.44
2022-08-30T03:58:54.704Z,98236.84
2022-08-30T04:00:56.107Z,98242.03
2022-08-30T04:02:57.506Z,98232.75
2022-08-30T04:04:58.836Z,98233.72
2022-08-30T04:07:00.191Z,98233.75
2022-08-30T04:09:01.635Z,98228.66
2022-08-30T04:11:02.988Z,98229.53
2022-08-30T04:13:06.573Z,98226.19
2022-08-30T04:15:09.486Z,98226.19
2022-08-30T04:17:10.794Z,98230.50
2022-08-30T04:19:12.207Z,98228.81
2022-08-30T04:21:14.262Z,98228.69
2022-08-30T04:23:15.788Z,98232.88
2022-08-30T04:25:17.743Z,98234.63
2022-08-30T04:27:20.464Z,98226.97
2022-08-30T04:29:21.816Z,98232.81
2022-08-30T04:31:23.190Z,98231.09
2022-08-30T04:33:24.719Z,98228.53
2022-08-30T04:35:26.106Z,98240.47
2022-08-30T04:37:27.433Z,98241.34
2022-08-30T04:39:28.792Z,98237.09
2022-08-30T04:41:30.112Z,98243.03
2022-08-30T04:43:31.435Z,98246.44
2022-08-30T04:45:32.882Z,98242.19
2022-08-30T04:47:34.293Z,98240.44
2022-08-30T04:49:35.667Z,98249.81
2022-08-30T04:53:38.290Z,98250.72
2022-08-30T04:55:39.651Z,98247.25
2022-08-30T04:57:40.963Z,98254.94
2022-08-30T04:59:42.365Z,98256.69
2022-08-30T05:01:45.274Z,98262.66
2022-08-30T05:03:47.197Z,98265.22
2022-08-30T05:05:48.567Z,98262.63
2022-08-30T05:07:49.952Z,98265.22
2022-08-30T05:09:51.288Z,98273.75
2022-08-30T05:13:53.949Z,98282.16
2022-08-30T05:15:55.362Z,98285.59
2022-08-30T05:17:56.728Z,98283.03
2022-08-30T05:19:58.091Z,98282.16
2022-08-30T05:21:59.434Z,98278.72
2022-08-30T05:24:00.738Z,98277.16
2022-08-30T05:26:02.811Z,98277.31
2022-08-30T05:28:04.167Z,98277.38
2022-08-30T05:30:06.308Z,98279.94
2022-08-30T05:32:07.699Z,98282.56
2022-08-30T05:34:09.031Z,98280.06
2022-08-30T05:36:10.339Z,98278.41
2022-08-30T05:38:11.707Z,98275.81
2022-08-30T05:40:13.292Z,98278.31
2022-08-30T05:42:16.868Z,98279.16
2022-08-30T05:44:18.281Z,98274.94
2022-08-30T05:46:21.052Z,98270.69
2022-08-30T05:48:22.458Z,98274.94
2022-08-30T05:50:24.243Z,98269.84
2022-08-30T05:52:25.571Z,98276.66
2022-08-30T05:54:26.896Z,98275.00
2022-08-30T05:56:28.282Z,98276.72
2022-08-30T05:58:29.652Z,98280.84
2022-08-30T06:00:31.042Z,98288.41
2022-08-30T06:02:32.369Z,98279.88
2022-08-30T06:04:33.788Z,98280.00
2022-08-30T06:06:35.498Z,98280.97
2022-08-30T06:08:36.843Z,98284.41
2022-08-30T06:10:38.212Z,98286.19
2022-08-30T06:12:39.583Z,98282.75
2022-08-30T06:14:40.911Z,98277.56
2022-08-30T06:16:45.698Z,98284.84
2022-08-30T06:18:47.263Z,98284.59
2022-08-30T06:20:50.277Z,98282.09
2022-08-30T06:22:52.292Z,98305.34
2022-08-30T06:24:57.438Z,98287.50
2022-08-30T06:26:59.249Z,98294.44
2022-08-30T06:29:00.635Z,98290.25
2022-08-30T06:31:01.981Z,98294.56
2022-08-30T06:33:03.327Z,98295.41
2022-08-30T06:35:05.043Z,98294.53
2022-08-30T06:37:06.355Z,98295.22
2022-08-30T06:39:07.715Z,98291.88
2022-08-30T06:41:09.111Z,98294.44
2022-08-30T06:43:10.444Z,98295.47
2022-08-30T06:45:11.847Z,98290.50
2022-08-30T06:47:13.173Z,98288.91
2022-08-30T06:49:14.694Z,98293.25
2022-08-30T06:51:16.130Z,98293.31
2022-08-30T06:53:17.626Z,98298.47
2022-08-30T06:55:19.007Z,98298.56
2022-08-30T06:57:20.319Z,98300.31
2022-08-30T06:59:21.648Z,98294.41
2022-08-30T07:01:23.213Z,98300.38
2022-08-30T07:03:27.272Z,98297.88
2022-08-30T07:05:28.615Z,98293.63
2022-08-30T07:07:29.948Z,98300.44
2022-08-30T07:11:37.623Z,98298.78
2022-08-30T07:13:39.052Z,98298.84
2022-08-30T07:15:40.423Z,98300.56
2022-08-30T07:18:00.584Z,98293.75
2022-08-30T07:20:01.907Z,98299.75
2022-08-30T07:22:03.220Z,98297.19
2022-08-30T07:24:04.602Z,98295.50
2022-08-30T07:26:10.063Z,98292.09
2022-08-30T07:28:11.870Z,98296.34
2022-08-30T07:30:13.393Z,98303.16
2022-08-30T07:32:14.735Z,98295.69
2022-08-30T07:34:16.183Z,98297.53
2022-08-30T07:36:17.794Z,98310.94
2022-08-30T07:38:19.111Z,98304.56
2022-08-30T07:40:20.496Z,98304.94
2022-08-30T07:42:21.858Z,98302.19
2022-08-30T07:44:25.143Z,98307.28
2022-08-30T07:46:27.068Z,98306.59
2022-08-30T07:48:28.452Z,98306.56
2022-08-30T07:50:29.795Z,98312.75
2022-08-30T07:52:31.219Z,98311.22
2022-08-30T07:54:32.613Z,98312.91
2022-08-30T07:56:34.239Z,98314.94
2022-08-30T07:58:37.588Z,98310.25
2022-08-30T08:00:39.022Z,98321.44
2022-08-30T08:02:41.896Z,98329.78
2022-08-30T08:04:43.958Z,98329.88
2022-08-30T08:06:45.400Z,98333.28
2022-08-30T08:08:46.756Z,98329.94
2022-08-30T08:10:48.092Z,98329.84
2022-08-30T08:12:49.707Z,98322.06
2022-08-30T08:14:53.472Z,98334.19
2022-08-30T08:16:54.811Z,98333.75
2022-08-30T08:18:56.138Z,98323.34
2022-08-30T08:20:57.463Z,98329.38
2022-08-30T08:22:58.834Z,98332.34
2022-08-30T08:25:00.158Z,98334.00
2022-08-30T08:27:01.462Z,98333.75
2022-08-30T08:29:02.997Z,98325.03
2022-08-30T08:31:04.412Z,98330.88
2022-08-30T08:33:06.211Z,98335.00
2022-08-30T08:35:07.566Z,98333.16
2022-08-30T08:37:08.909Z,98336.53
2022-08-30T08:39:10.271Z,98341.59
2022-08-30T08:41:11.675Z,98341.53
2022-08-30T08:43:13.048Z,98335.44
2022-08-30T08:45:14.392Z,98331.63
2022-08-30T08:47:15.936Z,98337.94
2022-08-30T08:49:17.269Z,98339.03
2022-08-30T08:51:37.103Z,98340.88
2022-08-30T08:53:46.873Z,98335.84
2022-08-30T08:55:48.473Z,98338.19
2022-08-30T08:57:49.998Z,98327.75
2022-08-30T08:59:54.462Z,98328.56
2022-08-30T09:01:58.165Z,98328.59
2022-08-30T09:03:59.650Z,98320.88
2022-08-30T09:06:00.986Z,98324.06
2022-08-30T09:08:04.567Z,98324.13
2022-08-30T09:10:09.060Z,98326.22
2022-08-30T09:12:10.386Z,98325.66
2022-08-30T09:14:11.719Z,98325.19
2022-08-30T09:16:22.409Z,98331.78
2022-08-30T09:18:23.922Z,98333.97
2022-08-30T09:20:25.230Z,98333.97
2022-08-30T09:22:26.856Z,98320.38
2022-08-30T09:24:28.177Z,98323.59
2022-08-30T09:26:29.702Z,98327.75
2022-08-30T09:28:31.019Z,98324.75
2022-08-30T09:30:32.392Z,98324.22
2022-08-30T09:32:33.808Z,98326.78
2022-08-30T09:34:35.106Z,98318.28
2022-08-30T09:36:36.432Z,98317.50
2022-08-30T09:38:37.813Z,98316.72
2022-08-30T09:40:39.236Z,98314.94
2022-08-30T09:42:40.858Z,98320.63
2022-08-30T09:44:42.218Z,98313.59
2022-08-30T09:46:43.591Z,98320.19
2022-08-30T09:51:04.183Z,98312.56
2022-08-30T09:53:09.902Z,98317.69
2022-08-30T09:55:11.284Z,98315.41
2022-08-30T09:57:13.223Z,98318.31
2022-08-30T09:59:14.648Z,98315.72
2022-08-30T10:01:16.129Z,98313.44
2022-08-30T10:05:36.622Z,98309.09
2022-08-30T10:07:37.958Z,98309.97
2022-08-30T10:09:40.926Z,98318.47
2022-08-30T10:11:43.767Z,98310.59
2022-08-30T10:13:45.184Z,98309.03
2022-08-30T10:15:46.523Z,98310.75
2022-08-30T10:17:48.729Z,98306.72
2022-08-30T10:19:50.053Z,98313.84
2022-08-30T10:21:51.409Z,98306.22
2022-08-30T10:23:53.511Z,98300.97
2022-08-30T10:25:54.942Z,98304.22
2022-08-30T10:27:56.434Z,98302.94
2022-08-30T10:29:59.464Z,98300.09
2022-08-30T10:32:01.784Z,98307.59
2022-08-30T10:34:03.144Z,98301.44
2022-08-30T10:36:04.507Z,98298.13
2022-08-30T10:38:11.760Z,98301.31
2022-08-30T10:40:31.702Z,98296.91
2022-08-30T10:42:36.670Z,98306.31
2022-08-30T10:44:41.334Z,98304.44
2022-08-30T10:46:42.727Z,98296.31
2022-08-30T10:48:47.503Z,98300.31
2022-08-30T10:50:48.970Z,98294.66
2022-08-30T10:52:50.487Z,98301.56
2022-08-30T10:54:51.837Z,98295.47
2022-08-30T10:56:53.159Z,98303.25
2022-08-30T10:58:54.961Z,98291.06
2022-08-30T11:00:56.347Z,98296.97
2022-08-30T11:02:57.785Z,98296.19
2022-08-30T11:05:00.736Z,98296.50
2022-08-30T11:07:02.965Z,98292.47
2022-08-30T11:09:05.447Z,98293.50
2022-08-30T11:11:06.783Z,98300.97
2022-08-30T11:13:14.379Z,98294.72
2022-08-30T11:15:15.774Z,98292.00
2022-08-30T11:17:17.117Z,98289.88
2022-08-30T11:19:18.970Z,98292.91
2022-08-30T11:21:22.046Z,98292.44
2022-08-30T11:23:23.566Z,98291.06
2022-08-30T11:25:25.809Z,98292.38
2022-08-30T11:27:27.131Z,98292.72
2022-08-30T11:29:30.037Z,98282.00
2022-08-30T11:31:32.987Z,98279.47
2022-08-30T11:33:34.298Z,98280.09
2022-08-30T11:35:35.612Z,98275.47
2022-08-30T11:37:37.440Z,98280.75
2022-08-30T11:39:38.784Z,98270.66
2022-08-30T11:41:42.605Z,98276.00
2022-08-30T11:43:45.959Z,98273.72
2022-08-30T11:45:47.483Z,98275.66
2022-08-30T11:47:51.009Z,98278.97
2022-08-30T11:49:52.440Z,98276.19
2022-08-30T11:52:23.650Z,98277.16
2022-08-30T11:54:15.394Z,98272.28
2022-08-30T11:56:17.091Z,98271.53
2022-08-30T11:58:18.966Z,98278.38
2022-08-30T12:00:20.278Z,98276.59
2022-08-30T12:02:21.713Z,98270.75
2022-08-30T12:04:24.623Z,98272.63
2022-08-30T12:06:25.942Z,98272.75
2022-08-30T12:08:27.977Z,98275.25
2022-08-30T12:10:29.763Z,98268.28
2022-08-30T12:12:31.102Z,98271.50
2022-08-30T12:14:32.518Z,98267.88
2022-08-30T12:16:33.875Z,98269.72
2022-08-30T12:18:35.831Z,98262.88
2022-08-30T12:20:37.162Z,98262.28
2022-08-30T12:22:38.842Z,98263.31
2022-08-30T12:24:40.263Z,98262.59
2022-08-30T12:26:41.571Z,98257.63
2022-08-30T12:28:43.521Z,98262.88
2022-08-30T12:30:46.530Z,98260.31
2022-08-30T12:32:50.712Z,98257.84
2022-08-30T12:34:52.331Z,98260.47
2022-08-30T12:36:53.746Z,98254.53
2022-08-30T12:38:56.451Z,98246.84
2022-08-30T12:41:00.734Z,98244.28
2022-08-30T12:43:04.241Z,98251.06
2022-08-30T12:45:05.559Z,98246.66
2022-08-30T12:47:06.870Z,98241.53
2022-08-30T12:49:08.179Z,98251.84
2022-08-30T12:51:10.952Z,98251.06
2022-08-30T12:53:14.101Z,98243.31
2022-08-30T12:55:17.576Z,98239.69
2022-08-30T12:57:34.896Z,98243.78
2022-08-30T12:59:36.722Z,98240.06
2022-08-30T13:01:38.826Z,98244.41
2022-08-30T13:03:41.496Z,98244.56
2022-08-30T13:05:45.533Z,98243.06
2022-08-30T13:07:49.111Z,98243.22
2022-08-30T13:09:53.678Z,98234.78
2022-08-30T13:11:55.041Z,98235.72
2022-08-30T13:13:58.275Z,98231.50
2022-08-30T13:16:01.474Z,98232.44
2022-08-30T13:18:03.581Z,98232.50
2022-08-30T13:20:05.774Z,98225.75
2022-08-30T13:22:07.427Z,98226.66
2022-08-30T13:24:09.023Z,98225.81
2022-08-30T13:26:11.496Z,98229.22
2022-08-30T13:28:12.911Z,98227.44
2022-08-30T13:30:14.632Z,98222.34
2022-08-30T13:32:16.202Z,98222.41
2022-08-30T13:34:19.084Z,98226.66
2022-08-30T13:36:20.498Z,98222.31
2022-08-30T13:38:24.423Z,98219.78
2022-08-30T13:40:25.827Z,98220.69
2022-08-30T13:42:34.668Z,98219.91
2022-08-30T13:44:37.768Z,98218.28
2022-08-30T13:46:43.141Z,98222.53
2022-08-30T13:48:44.658Z,98220.75
2022-08-30T13:50:46.588Z,98218.78
2022-08-30T13:52:47.927Z,98221.19
2022-08-30T13:54:49.800Z,98222.97
2022-08-30T13:56:51.548Z,98218.91
2022-08-30T13:58:52.899Z,98218.13
2022-08-30T14:00:54.263Z,98225.91
2022-08-30T14:02:59.855Z,98220.06
2022-08-30T14:05:03.213Z,98221.03
2022-08-30T14:07:14.097Z,98228.75
2022-08-30T14:09:21.055Z,98231.38
2022-08-30T14:11:22.938Z,98228.03
2022-08-30T14:13:24.560Z,98224.69
2022-08-30T14:15:25.866Z,98223.81
2022-08-30T14:17:30.390Z,98221.28
2022-08-30T14:19:31.796Z,98218.84
2022-08-30T14:21:33.200Z,98214.56
2022-08-30T14:23:34.540Z,98221.38
2022-08-30T14:25:36.026Z,98220.56
2022-08-30T14:27:37.891Z,98218.03
2022-08-30T14:29:39.352Z,98214.63
2022-08-30T14:31:41.029Z,98214.69
2022-08-30T14:33:42.367Z,98223.22
2022-08-30T14:35:43.699Z,98213.84
2022-08-30T14:37:45.319Z,98220.66
2022-08-30T14:39:46.663Z,98210.41
2022-08-30T14:41:48.087Z,98207.84
2022-08-30T14:43:49.395Z,98212.97
2022-08-30T14:45:50.716Z,98208.75
2022-08-30T14:51:54.843Z,98213.97
2022-08-30T14:53:56.331Z,98202.88
2022-08-30T14:55:57.690Z,98205.47
2022-08-30T14:57:58.998Z,98210.63
2022-08-30T15:00:00.746Z,98211.53
2022-08-30T15:02:02.081Z,98210.69
2022-08-30T15:04:03.650Z,98209.84
2022-08-30T15:06:08.563Z,98211.63
2022-08-30T15:08:10.484Z,98213.34
2022-08-30T15:10:14.731Z,98213.38
2022-08-30T15:12:16.050Z,98210.84
2022-08-30T15:14:17.393Z,98216.78
2022-08-30T15:16:18.743Z,98218.53
2022-08-30T15:18:20.150Z,98213.38
2022-08-30T15:20:21.495Z,98208.28
2022-08-30T15:22:22.868Z,98211.75
2022-08-30T15:24:25.021Z,98205.78
2022-08-30T15:26:31.363Z,98210.91
2022-08-30T15:28:32.724Z,98202.38
2022-08-30T15:30:34.156Z,98210.94
2022-08-30T15:32:35.587Z,98201.53
2022-08-30T15:34:37.658Z,98204.13
2022-08-30T15:36:38.976Z,98201.56
2022-08-30T15:38:42.243Z,98196.47
2022-08-30T15:40:44.643Z,98197.22
2022-08-30T15:42:46.843Z,98186.91
2022-08-30T15:44:48.163Z,98195.38
2022-08-30T15:46:49.592Z,98196.19
2022-08-30T15:48:52.021Z,98193.63
2022-08-30T15:50:53.368Z,98186.78
2022-08-30T15:52:54.692Z,98191.91
2022-08-30T15:54:56.307Z,98198.78
2022-08-30T15:57:01.452Z,98187.81
2022-08-30T15:59:03.040Z,98198.88
2022-08-30T16:01:05.633Z,98198.03
2022-08-30T16:03:07.084Z,98191.22
2022-08-30T16:05:08.473Z,98188.66
2022-08-30T16:07:09.802Z,98189.56
2022-08-30T16:09:11.512Z,98190.38
2022-08-30T16:11:12.909Z,98187.81
2022-08-30T16:13:14.283Z,98181.91
2022-08-30T16:15:15.678Z,98185.34
2022-08-30T16:17:17.365Z,98182.81
2022-08-30T16:19:19.639Z,98176.91
2022-08-30T16:21:21.007Z,98180.31
2022-08-30T16:23:22.338Z,98170.94
2022-08-30T16:25:23.735Z,98170.09
2022-08-30T16:27:25.100Z,98171.81
2022-08-30T16:29:26.407Z,98172.69
2022-08-30T16:31:27.821Z,98171.00
2022-08-30T16:33:29.167Z,98174.47
2022-08-30T16:35:30.479Z,98171.06
2022-08-30T16:37:32.230Z,98163.44
2022-08-30T16:39:33.558Z,98166.88
2022-08-30T16:41:34.884Z,98166.09
2022-08-30T16:43:36.295Z,98165.25
2022-08-30T16:45:37.603Z,98161.84
2022-08-30T16:47:39.283Z,98159.31
2022-08-30T16:49:40.606Z,98153.41
2022-08-30T16:51:42.158Z,98155.16
2022-08-30T16:53:43.527Z,98150.09
2022-08-30T16:55:45.034Z,98151.78
2022-08-30T16:57:46.611Z,98149.28
2022-08-30T16:59:49.535Z,98155.25
2022-08-30T17:01:53.847Z,98157.84
2022-08-30T17:03:55.863Z,98152.75
2022-08-30T17:05:57.570Z,98163.00
2022-08-30T17:07:58.879Z,98163.03
2022-08-30T17:10:00.291Z,98162.16
2022-08-30T17:12:01.611Z,98157.09
2022-08-30T17:14:05.244Z,98158.81
2022-08-30T17:16:06.614Z,98157.97
2022-08-30T17:18:08.018Z,98157.16
2022-08-30T17:20:09.547Z,98168.31
2022-08-30T17:22:10.909Z,98168.31
2022-08-30T17:24:12.479Z,98170.88
2022-08-30T17:26:13.832Z,98176.00
2022-08-30T17:28:15.171Z,98170.09
2022-08-30T17:30:16.555Z,98168.41
2022-08-30T17:32:17.873Z,98181.19
2022-08-30T17:34:21.867Z,98179.53
2022-08-30T17:36:23.556Z,98182.94
2022-08-30T17:38:25.572Z,98182.09
2022-08-30T17:40:26.903Z,98183.81
2022-08-30T17:42:29.717Z,98187.25
2022-08-30T17:44:31.278Z,98192.38
2022-08-30T17:46:33.704Z,98187.28
2022-08-30T17:48:35.383Z,98196.66
2022-08-30T17:50:36.743Z,98198.41
2022-08-30T17:52:38.078Z,98200.13
2022-08-30T17:54:41.014Z,98193.31
2022-08-30T17:56:42.364Z,98198.44
2022-08-30T17:58:43.709Z,98196.75
2022-08-30T18:00:45.041Z,98200.19
2022-08-30T18:02:47.029Z,98203.59
2022-08-30T18:04:49.259Z,98206.16
2022-08-30T18:06:50.643Z,98200.25
2022-08-30T18:08:53.183Z,98212.16
2022-08-30T18:10:54.499Z,98207.94
2022-08-30T18:12:55.823Z,98202.84
2022-08-30T18:14:57.143Z,98207.09
2022-08-30T18:16:58.498Z,98210.50
2022-08-30T18:19:00.107Z,98208.84
2022-08-30T18:21:02.115Z,98205.44
2022-08-30T18:23:03.619Z,98210.56
2022-08-30T18:25:05.092Z,98207.22
2022-08-30T18:27:06.421Z,98210.56
2022-08-30T18:29:07.747Z,98213.13
2022-08-30T18:31:09.935Z,98219.16
2022-08-30T18:33:11.249Z,98208.91
2022-08-30T18:35:12.586Z,98209.81
2022-08-30T18:37:16.579Z,98217.50
2022-08-30T18:39:19.042Z,98215.81
2022-08-30T18:41:21.903Z,98219.22
2022-08-30T18:43:24.727Z,98217.50
2022-08-30T18:45:32.244Z,98220.06
2022-08-30T18:47:33.731Z,98226.91
2022-08-30T18:49:36.420Z,98237.13
2022-08-30T18:51:38.039Z,98229.50
2022-08-30T18:53:40.451Z,98230.38
2022-08-30T18:55:42.403Z,98232.91
2022-08-30T18:57:44.666Z,98232.91
2022-08-30T18:59:46.046Z,98226.16
2022-08-30T19:01:48.791Z,98227.00
2022-08-30T19:03:51.110Z,98227.00
2022-08-30T19:05:53.913Z,98236.38
2022-08-30T19:07:55.385Z,98229.56
2022-08-30T19:09:58.920Z,98238.16
2022-08-30T19:12:00.893Z,98230.47
2022-08-30T19:14:04.631Z,98233.88
2022-08-30T19:16:08.381Z,98229.63
2022-08-30T19:18:17.524Z,98238.19
2022-08-30T19:20:34.748Z,98232.22
2022-08-30T19:23:06.174Z,98237.34
2022-08-30T19:24:57.361Z,98239.06
2022-08-30T19:26:58.671Z,98234.81
2022-08-30T19:28:59.982Z,98240.81
2022-08-30T19:33:26.103Z,98245.06
2022-08-30T19:35:30.295Z,98239.97
2022-08-30T19:37:31.808Z,98245.94
2022-08-30T19:39:35.664Z,98243.38
2022-08-30T19:41:37.555Z,98248.53
2022-08-30T19:43:38.910Z,98251.09
2022-08-30T19:45:40.233Z,98242.59
2022-08-30T19:47:41.647Z,98247.69
2022-08-30T19:49:43.068Z,98243.44
2022-08-30T19:51:46.569Z,98245.19
2022-08-30T19:53:48.498Z,98246.03
2022-08-30T19:55:49.829Z,98250.28
2022-08-30T19:57:51.190Z,98253.72
2022-08-30T19:59:52.614Z,98246.91
2022-08-30T20:01:53.947Z,98246.09
2022-08-30T20:03:56.772Z,98246.09
2022-08-30T20:05:58.122Z,98252.03
2022-08-30T20:08:00.535Z,98252.06
2022-08-30T20:10:05.303Z,98246.97
2022-08-30T20:12:07.174Z,98243.53
2022-08-30T20:14:08.488Z,98252.94
2022-08-30T20:16:09.835Z,98242.69
2022-08-30T20:18:13.575Z,98243.59
2022-08-30T20:20:16.147Z,98252.97
2022-08-30T20:22:21.891Z,98284.50
2022-08-30T20:24:24.005Z,98250.41
2022-08-30T20:26:34.909Z,98252.16
2022-08-30T20:28:37.190Z,98247.06
2022-08-30T20:30:38.648Z,98250.44
2022-08-30T20:32:42.499Z,98262.38
2022-08-30T20:34:44.270Z,98256.44
2022-08-30T20:36:45.630Z,98252.16
2022-08-30T20:38:47.602Z,98252.16
2022-08-30T20:40:50.247Z,98256.44
2022-08-30T20:42:51.975Z,98247.91
2022-08-30T20:44:53.283Z,98239.41
2022-08-30T20:46:54.590Z,98247.06
2022-08-30T20:48:55.991Z,98245.34
2022-08-30T20:50:57.348Z,98248.78
2022-08-30T20:52:58.664Z,98255.63
2022-08-30T20:55:00.361Z,98255.66
2022-08-30T20:57:01.997Z,98249.69
2022-08-30T20:59:03.605Z,98254.78
2022-08-30T21:01:05.197Z,98251.38
2022-08-30T21:03:07.770Z,98248.03
2022-08-30T21:05:19.102Z,98252.28
2022-08-30T21:07:20.452Z,98257.41
2022-08-30T21:09:21.854Z,98258.25
2022-08-30T21:11:23.328Z,98257.41
2022-08-30T21:13:24.699Z,98262.50
2022-08-30T21:15:37.345Z,98263.38
2022-08-30T21:17:40.187Z,98264.16
2022-08-30T21:19:44.149Z,98267.56
2022-08-30T21:21:45.566Z,98262.44
2022-08-30T21:23:46.874Z,98269.22
2022-08-30T21:25:48.818Z,98265.78
2022-08-30T21:27:50.247Z,98262.66
2022-08-30T21:29:51.641Z,98258.94
2022-08-30T21:31:52.957Z,98268.06
2022-08-30T21:33:54.300Z,98266.16
2022-08-30T21:36:14.208Z,98262.63
2022-08-30T21:38:15.550Z,98266.72
2022-08-30T21:40:17.471Z,98256.41
2022-08-30T21:42:18.905Z,98259.06
2022-08-30T21:44:20.280Z,98259.94
2022-08-30T21:46:21.663Z,98256.09
2022-08-30T21:48:23.314Z,98261.38
2022-08-30T21:50:24.621Z,98263.53
2022-08-30T21:52:25.956Z,98271.56
2022-08-30T21:54:31.365Z,98266.25
2022-08-30T21:56:33.003Z,98265.44
2022-08-30T21:58:34.899Z,98269.72
2022-08-30T22:00:36.221Z,98271.75
2022-08-30T22:02:37.593Z,98264.75
2022-08-30T22:04:38.956Z,98277.75
2022-08-30T22:06:40.288Z,98274.91
2022-08-30T22:08:42.026Z,98273.81
2022-08-30T22:10:43.406Z,98271.91
2022-08-30T22:12:44.733Z,98270.81
2022-08-30T22:14:46.067Z,98274.66
2022-08-30T22:16:47.904Z,98268.00
2022-08-30T22:18:49.282Z,98264.25
2022-08-30T22:20:50.643Z,98273.06
2022-08-30T22:22:51.978Z,98279.56
2022-08-30T22:24:53.315Z,98278.03
2022-08-30T22:26:54.635Z,98271.28
2022-08-30T22:28:55.999Z,98274.97
2022-08-30T22:30:57.315Z,98267.63
2022-08-30T22:32:58.671Z,98274.66
2022-08-30T22:35:00.051Z,98272.97
2022-08-30T22:37:01.402Z,98267.53
2022-08-30T22:39:03.139Z,98264.81
2022-08-30T22:41:04.917Z,98271.41
2022-08-30T22:43:06.231Z,98268.84
2022-08-30T22:45:07.598Z,98273.53
2022-08-30T22:47:11.559Z,98272.03
2022-08-30T22:49:12.910Z,98277.09
2022-08-30T22:51:14.266Z,98270.50
2022-08-30T22:53:15.584Z,98272.47
2022-08-30T22:55:17.048Z,98277.97
2022-08-30T22:57:19.891Z,98275.66
2022-08-30T22:59:21.235Z,98270.97
2022-08-30T23:01:31.721Z,98267.88
2022-08-30T23:03:33.077Z,98266.22
2022-08-30T23:05:34.399Z,98264.31
2022-08-30T23:07:35.739Z,98267.59
2022-08-30T23:09:37.062Z,98265.13
2022-08-30T23:11:38.378Z,98267.78
2022-08-30T23:13:39.679Z,98263.56
2022-08-30T23:15:41.012Z,98260.56
2022-08-30T23:17:42.395Z,98084.00
2022-08-30T23:19:43.810Z,98275.22
2022-08-30T23:21:45.175Z,98267.44
2022-08-30T23:24:05.154Z,98278.25
2022-08-30T23:26:25.151Z,98272.59
2022-08-30T23:28:45.051Z,98271.94
2022-08-30T23:31:05.004Z,98265.66
2022-08-30T23:33:25.245Z,98269.72
2022-08-30T23:35:45.144Z,98277.16
2022-08-30T23:38:05.132Z,98278.75
2022-08-30T23:40:25.204Z,98275.31
2022-08-30T23:42:45.572Z,98272.72
2022-08-30T23:45:05.450Z,98270.94
2022-08-30T23:47:25.391Z,98262.91
2022-08-30T23:49:45.254Z,98271.38
2022-08-30T23:52:05.242Z,98273.72
2022-08-30T23:54:25.232Z,98268.09
2022-08-30T23:56:44.978Z,98263.81
2022-08-30T23:59:04.880Z,98265.72
